sensor_id;sensor_type;location;lat;lon;timestamp;pressure;altitude;pressure_sealevel;temperature;humidity
76808;BME280;65758;45.458;11.062;2024-03-06T00:02:22;100596.08;;;12.32;74.91
76808;BME280;65758;45.458;11.062;2024-03-06T00:04:49;100601.88;;;12.34;74.74
76808;BME280;65758;45.458;11.062;2024-03-06T00:07:16;100600.63;;;12.35;74.54
76808;BME280;65758;45.458;11.062;2024-03-06T00:09:43;100597.33;;;12.35;74.47
76808;BME280;65758;45.458;11.062;2024-03-06T00:12:11;100599.52;;;12.34;74.33
76808;BME280;65758;45.458;11.062;2024-03-06T00:14:38;100596.46;;;12.28;73.86
76808;BME280;65758;45.458;11.062;2024-03-06T00:17:05;100591.42;;;12.20;73.86
76808;BME280;65758;45.458;11.062;2024-03-06T00:19:34;100591.63;;;12.15;74.23
76808;BME280;65758;45.458;11.062;2024-03-06T00:22:01;100593.13;;;12.11;74.60
76808;BME280;65758;45.458;11.062;2024-03-06T00:24:29;100595.39;;;12.09;74.56
76808;BME280;65758;45.458;11.062;2024-03-06T00:26:56;100599.79;;;12.09;74.90
76808;BME280;65758;45.458;11.062;2024-03-06T00:29:23;100601.30;;;12.10;75.43
76808;BME280;65758;45.458;11.062;2024-03-06T00:31:50;100604.59;;;12.10;75.51
76808;BME280;65758;45.458;11.062;2024-03-06T00:34:17;100606.09;;;12.09;75.33
76808;BME280;65758;45.458;11.062;2024-03-06T00:36:44;100604.25;;;12.05;74.90
76808;BME280;65758;45.458;11.062;2024-03-06T00:39:11;100600.16;;;12.03;75.26
76808;BME280;65758;45.458;11.062;2024-03-06T00:41:40;100596.77;;;12.02;75.00
76808;BME280;65758;45.458;11.062;2024-03-06T00:44:08;100600.66;;;11.99;74.27
76808;BME280;65758;45.458;11.062;2024-03-06T00:46:36;100599.48;;;11.98;74.35
76808;BME280;65758;45.458;11.062;2024-03-06T00:49:03;100596.50;;;11.97;73.46
76808;BME280;65758;45.458;11.062;2024-03-06T00:51:29;100593.66;;;11.96;73.24
76808;BME280;65758;45.458;11.062;2024-03-06T00:54:10;100591.72;;;11.94;73.22
76808;BME280;65758;45.458;11.062;2024-03-06T00:56:38;100587.77;;;11.92;72.60
76808;BME280;65758;45.458;11.062;2024-03-06T00:59:06;100586.30;;;11.90;72.86
76808;BME280;65758;45.458;11.062;2024-03-06T01:01:33;100588.33;;;11.90;72.74
76808;BME280;65758;45.458;11.062;2024-03-06T01:04:00;100586.69;;;11.90;72.74
76808;BME280;65758;45.458;11.062;2024-03-06T01:06:27;100585.72;;;11.91;73.01
76808;BME280;65758;45.458;11.062;2024-03-06T01:08:55;100585.33;;;11.91;72.57
76808;BME280;65758;45.458;11.062;2024-03-06T01:11:24;100586.27;;;11.91;72.44
76808;BME280;65758;45.458;11.062;2024-03-06T01:13:52;100581.99;;;11.89;72.61
76808;BME280;65758;45.458;11.062;2024-03-06T01:16:19;100584.86;;;11.87;72.73
76808;BME280;65758;45.458;11.062;2024-03-06T01:18:46;100580.05;;;11.86;72.57
76808;BME280;65758;45.458;11.062;2024-03-06T01:21:13;100583.58;;;11.84;72.35
76808;BME280;65758;45.458;11.062;2024-03-06T01:23:40;100582.96;;;11.84;72.62
76808;BME280;65758;45.458;11.062;2024-03-06T01:26:07;100579.63;;;11.82;72.38
76808;BME280;65758;45.458;11.062;2024-03-06T01:28:34;100582.18;;;11.78;72.75
76808;BME280;65758;45.458;11.062;2024-03-06T01:31:01;100579.37;;;11.75;72.51
76808;BME280;65758;45.458;11.062;2024-03-06T01:33:27;100579.48;;;11.74;72.84
76808;BME280;65758;45.458;11.062;2024-03-06T01:35:54;100581.70;;;11.72;73.05
76808;BME280;65758;45.458;11.062;2024-03-06T01:38:21;100584.51;;;11.69;73.36
76808;BME280;65758;45.458;11.062;2024-03-06T01:40:48;100585.70;;;11.66;73.15
76808;BME280;65758;45.458;11.062;2024-03-06T01:43:23;100577.77;;;11.62;73.13
76808;BME280;65758;45.458;11.062;2024-03-06T01:45:52;100585.55;;;11.58;73.63
76808;BME280;65758;45.458;11.062;2024-03-06T01:48:23;100583.48;;;11.54;74.28
76808;BME280;65758;45.458;11.062;2024-03-06T01:50:55;100582.30;;;11.50;74.01
76808;BME280;65758;45.458;11.062;2024-03-06T01:53:23;100584.25;;;11.47;74.25
76808;BME280;65758;45.458;11.062;2024-03-06T01:55:53;100587.85;;;11.44;74.42
76808;BME280;65758;45.458;11.062;2024-03-06T01:58:21;100594.48;;;11.42;74.45
76808;BME280;65758;45.458;11.062;2024-03-06T02:00:50;100593.05;;;11.40;74.36
76808;BME280;65758;45.458;11.062;2024-03-06T02:03:18;100597.60;;;11.38;74.68
76808;BME280;65758;45.458;11.062;2024-03-06T02:05:48;100595.52;;;11.36;74.76
76808;BME280;65758;45.458;11.062;2024-03-06T02:08:15;100590.89;;;11.34;74.46
76808;BME280;65758;45.458;11.062;2024-03-06T02:10:44;100592.09;;;11.32;74.71
76808;BME280;65758;45.458;11.062;2024-03-06T02:13:13;100590.23;;;11.30;74.70
76808;BME280;65758;45.458;11.062;2024-03-06T02:15:40;100586.48;;;11.27;74.36
76808;BME280;65758;45.458;11.062;2024-03-06T02:18:07;100590.95;;;11.25;74.52
76808;BME280;65758;45.458;11.062;2024-03-06T02:20:39;100589.95;;;11.24;74.45
76808;BME280;65758;45.458;11.062;2024-03-06T02:23:07;100588.95;;;11.21;74.47
76808;BME280;65758;45.458;11.062;2024-03-06T02:25:35;100587.29;;;11.18;74.36
76808;BME280;65758;45.458;11.062;2024-03-06T02:28:02;100586.41;;;11.16;74.66
76808;BME280;65758;45.458;11.062;2024-03-06T02:30:29;100581.34;;;11.14;74.71
76808;BME280;65758;45.458;11.062;2024-03-06T02:33:03;100579.25;;;11.13;74.58
76808;BME280;65758;45.458;11.062;2024-03-06T02:35:33;100579.04;;;11.10;74.48
76808;BME280;65758;45.458;11.062;2024-03-06T02:38:03;100580.82;;;11.10;74.09
76808;BME280;65758;45.458;11.062;2024-03-06T02:40:33;100582.26;;;11.08;74.47
76808;BME280;65758;45.458;11.062;2024-03-06T02:43:01;100579.23;;;11.08;74.44
76808;BME280;65758;45.458;11.062;2024-03-06T02:45:28;100580.72;;;11.08;74.24
76808;BME280;65758;45.458;11.062;2024-03-06T02:47:55;100580.17;;;11.08;73.93
76808;BME280;65758;45.458;11.062;2024-03-06T02:50:22;100579.23;;;11.07;73.84
76808;BME280;65758;45.458;11.062;2024-03-06T02:52:50;100585.89;;;11.06;73.84
76808;BME280;65758;45.458;11.062;2024-03-06T02:55:18;100585.35;;;11.05;73.91
76808;BME280;65758;45.458;11.062;2024-03-06T02:57:46;100582.91;;;11.04;74.10
76808;BME280;65758;45.458;11.062;2024-03-06T03:00:13;100588.52;;;11.04;73.99
76808;BME280;65758;45.458;11.062;2024-03-06T03:02:40;100588.70;;;11.03;73.90
76808;BME280;65758;45.458;11.062;2024-03-06T03:05:08;100586.70;;;11.02;74.19
76808;BME280;65758;45.458;11.062;2024-03-06T03:07:35;100594.56;;;10.99;74.32
76808;BME280;65758;45.458;11.062;2024-03-06T03:10:02;100596.92;;;10.97;74.41
76808;BME280;65758;45.458;11.062;2024-03-06T03:12:30;100598.77;;;10.95;74.15
76808;BME280;65758;45.458;11.062;2024-03-06T03:14:57;100595.76;;;10.93;74.14
76808;BME280;65758;45.458;11.062;2024-03-06T03:17:24;100593.50;;;10.92;74.35
76808;BME280;65758;45.458;11.062;2024-03-06T03:19:51;100595.42;;;10.93;74.24
76808;BME280;65758;45.458;11.062;2024-03-06T03:22:17;100593.40;;;10.93;74.05
76808;BME280;65758;45.458;11.062;2024-03-06T03:24:44;100591.61;;;10.91;74.29
76808;BME280;65758;45.458;11.062;2024-03-06T03:27:11;100587.19;;;10.92;74.07
76808;BME280;65758;45.458;11.062;2024-03-06T03:29:38;100590.20;;;10.91;74.34
76808;BME280;65758;45.458;11.062;2024-03-06T03:32:06;100589.70;;;10.91;73.92
76808;BME280;65758;45.458;11.062;2024-03-06T03:34:36;100596.40;;;10.90;74.24
76808;BME280;65758;45.458;11.062;2024-03-06T03:37:03;100590.53;;;10.88;74.18
76808;BME280;65758;45.458;11.062;2024-03-06T03:39:30;100592.66;;;10.87;74.08
76808;BME280;65758;45.458;11.062;2024-03-06T03:41:56;100597.63;;;10.87;73.90
76808;BME280;65758;45.458;11.062;2024-03-06T03:44:23;100597.54;;;10.88;74.09
76808;BME280;65758;45.458;11.062;2024-03-06T03:46:50;100599.75;;;10.88;73.97
76808;BME280;65758;45.458;11.062;2024-03-06T03:49:17;100599.17;;;10.90;74.18
76808;BME280;65758;45.458;11.062;2024-03-06T03:51:45;100596.27;;;10.91;73.63
76808;BME280;65758;45.458;11.062;2024-03-06T03:54:12;100593.01;;;10.92;73.91
76808;BME280;65758;45.458;11.062;2024-03-06T03:56:39;100591.86;;;10.92;73.95
76808;BME280;65758;45.458;11.062;2024-03-06T03:59:06;100588.80;;;10.92;74.16
76808;BME280;65758;45.458;11.062;2024-03-06T04:01:34;100587.12;;;10.91;73.97
76808;BME280;65758;45.458;11.062;2024-03-06T04:04:01;100584.44;;;10.89;73.85
76808;BME280;65758;45.458;11.062;2024-03-06T04:06:28;100580.43;;;10.88;74.45
76808;BME280;65758;45.458;11.062;2024-03-06T04:08:55;100588.73;;;10.86;74.50
76808;BME280;65758;45.458;11.062;2024-03-06T04:11:22;100584.98;;;10.85;74.53
76808;BME280;65758;45.458;11.062;2024-03-06T04:13:49;100586.77;;;10.84;74.29
76808;BME280;65758;45.458;11.062;2024-03-06T04:16:19;100582.73;;;10.83;74.54
76808;BME280;65758;45.458;11.062;2024-03-06T04:18:46;100583.04;;;10.82;74.60
76808;BME280;65758;45.458;11.062;2024-03-06T04:21:13;100579.80;;;10.82;74.44
76808;BME280;65758;45.458;11.062;2024-03-06T04:23:43;100593.02;;;10.81;74.53
76808;BME280;65758;45.458;11.062;2024-03-06T04:26:10;100589.42;;;10.81;74.58
76808;BME280;65758;45.458;11.062;2024-03-06T04:28:37;100589.46;;;10.81;74.54
76808;BME280;65758;45.458;11.062;2024-03-06T04:31:04;100586.13;;;10.81;74.57
76808;BME280;65758;45.458;11.062;2024-03-06T04:33:31;100587.02;;;10.81;74.67
76808;BME280;65758;45.458;11.062;2024-03-06T04:36:01;100594.40;;;10.80;74.48
76808;BME280;65758;45.458;11.062;2024-03-06T04:38:29;100601.18;;;10.80;74.43
76808;BME280;65758;45.458;11.062;2024-03-06T04:40:56;100605.89;;;10.81;74.51
76808;BME280;65758;45.458;11.062;2024-03-06T04:43:23;100608.58;;;10.81;74.97
76808;BME280;65758;45.458;11.062;2024-03-06T04:45:50;100607.48;;;10.81;74.53
76808;BME280;65758;45.458;11.062;2024-03-06T04:48:18;100618.11;;;10.82;74.70
76808;BME280;65758;45.458;11.062;2024-03-06T04:50:45;100623.92;;;10.82;74.35
76808;BME280;65758;45.458;11.062;2024-03-06T04:53:11;100626.42;;;10.81;74.58
76808;BME280;65758;45.458;11.062;2024-03-06T04:55:38;100632.68;;;10.79;74.83
76808;BME280;65758;45.458;11.062;2024-03-06T04:58:05;100638.14;;;10.77;75.12
76808;BME280;65758;45.458;11.062;2024-03-06T05:00:33;100640.10;;;10.75;75.11
76808;BME280;65758;45.458;11.062;2024-03-06T05:02:59;100644.42;;;10.73;75.18
76808;BME280;65758;45.458;11.062;2024-03-06T05:05:44;100647.44;;;10.71;75.22
76808;BME280;65758;45.458;11.062;2024-03-06T05:08:29;100659.91;;;10.71;75.15
76808;BME280;65758;45.458;11.062;2024-03-06T05:11:14;100661.75;;;10.71;75.38
76808;BME280;65758;45.458;11.062;2024-03-06T05:13:59;100666.94;;;10.70;75.32
76808;BME280;65758;45.458;11.062;2024-03-06T05:16:43;100670.08;;;10.69;75.55
76808;BME280;65758;45.458;11.062;2024-03-06T05:19:28;100671.27;;;10.68;75.79
76808;BME280;65758;45.458;11.062;2024-03-06T05:22:16;100672.77;;;10.69;75.92
76808;BME280;65758;45.458;11.062;2024-03-06T05:25:01;100675.20;;;10.70;75.93
76808;BME280;65758;45.458;11.062;2024-03-06T05:27:45;100671.90;;;10.71;76.25
76808;BME280;65758;45.458;11.062;2024-03-06T05:30:30;100673.74;;;10.72;76.00
76808;BME280;65758;45.458;11.062;2024-03-06T05:33:15;100678.22;;;10.74;76.08
76808;BME280;65758;45.458;11.062;2024-03-06T05:35:59;100677.58;;;10.75;75.66
76808;BME280;65758;45.458;11.062;2024-03-06T05:38:44;100683.64;;;10.76;76.23
76808;BME280;65758;45.458;11.062;2024-03-06T05:41:29;100688.52;;;10.76;76.00
76808;BME280;65758;45.458;11.062;2024-03-06T05:44:14;100686.96;;;10.77;76.05
76808;BME280;65758;45.458;11.062;2024-03-06T05:46:59;100688.66;;;10.77;76.15
76808;BME280;65758;45.458;11.062;2024-03-06T05:49:44;100690.19;;;10.77;75.71
76808;BME280;65758;45.458;11.062;2024-03-06T05:52:29;100689.69;;;10.77;75.87
76808;BME280;65758;45.458;11.062;2024-03-06T05:55:13;100695.17;;;10.78;75.62
76808;BME280;65758;45.458;11.062;2024-03-06T05:57:57;100700.77;;;10.81;75.82
76808;BME280;65758;45.458;11.062;2024-03-06T06:00:38;100706.91;;;10.84;75.62
76808;BME280;65758;45.458;11.062;2024-03-06T06:03:08;100705.73;;;10.86;75.23
76808;BME280;65758;45.458;11.062;2024-03-06T06:05:35;100709.40;;;10.88;74.92
76808;BME280;65758;45.458;11.062;2024-03-06T06:08:04;100712.14;;;10.90;74.90
76808;BME280;65758;45.458;11.062;2024-03-06T06:10:32;100712.86;;;10.92;75.04
76808;BME280;65758;45.458;11.062;2024-03-06T06:12:59;100716.08;;;10.95;75.39
76808;BME280;65758;45.458;11.062;2024-03-06T06:15:27;100711.66;;;10.96;74.92
76808;BME280;65758;45.458;11.062;2024-03-06T06:17:53;100717.30;;;10.97;74.83
76808;BME280;65758;45.458;11.062;2024-03-06T06:20:21;100718.96;;;10.97;74.94
76808;BME280;65758;45.458;11.062;2024-03-06T06:22:48;100721.17;;;10.98;74.97
76808;BME280;65758;45.458;11.062;2024-03-06T06:25:15;100719.52;;;10.98;74.57
76808;BME280;65758;45.458;11.062;2024-03-06T06:27:43;100720.75;;;10.98;74.59
76808;BME280;65758;45.458;11.062;2024-03-06T06:30:10;100725.09;;;10.98;74.18
76808;BME280;65758;45.458;11.062;2024-03-06T06:32:41;100726.90;;;10.98;74.61
76808;BME280;65758;45.458;11.062;2024-03-06T06:35:10;100735.52;;;10.99;74.37
76808;BME280;65758;45.458;11.062;2024-03-06T06:37:39;100737.86;;;11.01;74.51
76808;BME280;65758;45.458;11.062;2024-03-06T06:40:07;100738.00;;;11.03;74.33
76808;BME280;65758;45.458;11.062;2024-03-06T06:42:35;100740.75;;;11.06;73.99
76808;BME280;65758;45.458;11.062;2024-03-06T06:45:04;100743.33;;;11.08;74.21
76808;BME280;65758;45.458;11.062;2024-03-06T06:47:33;100738.92;;;11.11;73.68
76808;BME280;65758;45.458;11.062;2024-03-06T06:50:01;100737.02;;;11.14;74.00
76808;BME280;65758;45.458;11.062;2024-03-06T06:52:33;100734.17;;;11.16;73.82
76808;BME280;65758;45.458;11.062;2024-03-06T06:55:01;100738.02;;;11.18;73.80
76808;BME280;65758;45.458;11.062;2024-03-06T06:57:29;100737.57;;;11.20;74.06
76808;BME280;65758;45.458;11.062;2024-03-06T06:59:56;100735.46;;;11.24;73.63
76808;BME280;65758;45.458;11.062;2024-03-06T07:02:23;100734.05;;;11.28;73.82
76808;BME280;65758;45.458;11.062;2024-03-06T07:04:50;100736.84;;;11.33;73.54
76808;BME280;65758;45.458;11.062;2024-03-06T07:07:17;100738.55;;;11.37;73.68
76808;BME280;65758;45.458;11.062;2024-03-06T07:09:44;100740.95;;;11.40;73.30
76808;BME280;65758;45.458;11.062;2024-03-06T07:12:11;100745.67;;;11.43;73.11
76808;BME280;65758;45.458;11.062;2024-03-06T07:14:38;100742.89;;;11.44;73.13
76808;BME280;65758;45.458;11.062;2024-03-06T07:17:05;100743.23;;;11.45;73.22
76808;BME280;65758;45.458;11.062;2024-03-06T07:19:31;100744.10;;;11.45;72.56
76808;BME280;65758;45.458;11.062;2024-03-06T07:21:58;100747.05;;;11.44;72.81
76808;BME280;65758;45.458;11.062;2024-03-06T07:24:25;100750.64;;;11.45;72.61
76808;BME280;65758;45.458;11.062;2024-03-06T07:26:52;100756.25;;;11.46;72.66
76808;BME280;65758;45.458;11.062;2024-03-06T07:29:19;100750.85;;;11.49;72.43
76808;BME280;65758;45.458;11.062;2024-03-06T07:31:46;100753.28;;;11.54;71.74
76808;BME280;65758;45.458;11.062;2024-03-06T07:34:14;100755.01;;;11.60;72.23
76808;BME280;65758;45.458;11.062;2024-03-06T07:36:41;100757.57;;;11.67;71.83
76808;BME280;65758;45.458;11.062;2024-03-06T07:39:08;100762.34;;;11.74;71.42
76808;BME280;65758;45.458;11.062;2024-03-06T07:41:35;100766.70;;;11.81;70.85
76808;BME280;65758;45.458;11.062;2024-03-06T07:44:02;100765.54;;;11.91;71.01
76808;BME280;65758;45.458;11.062;2024-03-06T07:46:30;100763.60;;;12.01;70.93
76808;BME280;65758;45.458;11.062;2024-03-06T07:48:57;100762.64;;;12.06;70.63
76808;BME280;65758;45.458;11.062;2024-03-06T07:51:23;100761.91;;;12.09;70.30
76808;BME280;65758;45.458;11.062;2024-03-06T07:53:50;100768.69;;;12.12;70.16
76808;BME280;65758;45.458;11.062;2024-03-06T07:56:18;100774.79;;;12.14;69.66
76808;BME280;65758;45.458;11.062;2024-03-06T07:58:45;100778.70;;;12.15;69.44
76808;BME280;65758;45.458;11.062;2024-03-06T08:01:12;100778.47;;;12.18;69.44
76808;BME280;65758;45.458;11.062;2024-03-06T08:03:39;100783.10;;;12.24;69.11
76808;BME280;65758;45.458;11.062;2024-03-06T08:06:11;100784.27;;;12.27;68.06
76808;BME280;65758;45.458;11.062;2024-03-06T08:08:40;100788.19;;;12.32;68.42
76808;BME280;65758;45.458;11.062;2024-03-06T08:11:08;100797.74;;;12.39;68.04
76808;BME280;65758;45.458;11.062;2024-03-06T08:13:38;100800.73;;;12.42;67.22
76808;BME280;65758;45.458;11.062;2024-03-06T08:16:06;100802.27;;;12.42;67.06
76808;BME280;65758;45.458;11.062;2024-03-06T08:18:34;100807.84;;;12.43;67.09
76808;BME280;65758;45.458;11.062;2024-03-06T08:21:02;100811.66;;;12.44;66.66
76808;BME280;65758;45.458;11.062;2024-03-06T08:23:31;100816.15;;;12.49;66.55
76808;BME280;65758;45.458;11.062;2024-03-06T08:25:58;100821.64;;;12.56;66.76
76808;BME280;65758;45.458;11.062;2024-03-06T08:28:26;100824.66;;;12.67;66.15
76808;BME280;65758;45.458;11.062;2024-03-06T08:30:53;100828.63;;;12.79;66.26
76808;BME280;65758;45.458;11.062;2024-03-06T08:33:19;100827.58;;;12.90;65.95
76808;BME280;65758;45.458;11.062;2024-03-06T08:35:48;100829.77;;;13.00;65.67
76808;BME280;65758;45.458;11.062;2024-03-06T08:38:15;100829.98;;;13.06;64.61
76808;BME280;65758;45.458;11.062;2024-03-06T08:40:44;100828.28;;;13.11;64.70
76808;BME280;65758;45.458;11.062;2024-03-06T08:43:12;100830.77;;;13.20;64.23
76808;BME280;65758;45.458;11.062;2024-03-06T08:45:39;100841.31;;;13.28;63.89
76808;BME280;65758;45.458;11.062;2024-03-06T08:48:06;100836.17;;;13.37;64.07
76808;BME280;65758;45.458;11.062;2024-03-06T08:50:33;100841.67;;;13.46;63.81
76808;BME280;65758;45.458;11.062;2024-03-06T08:53:00;100844.83;;;13.55;63.90
76808;BME280;65758;45.458;11.062;2024-03-06T08:55:29;100846.92;;;13.63;63.72
76808;BME280;65758;45.458;11.062;2024-03-06T08:57:55;100847.98;;;13.72;63.93
76808;BME280;65758;45.458;11.062;2024-03-06T09:00:22;100854.44;;;13.81;63.68
76808;BME280;65758;45.458;11.062;2024-03-06T09:02:49;100851.79;;;13.86;63.39
76808;BME280;65758;45.458;11.062;2024-03-06T09:05:16;100858.01;;;13.92;63.34
76808;BME280;65758;45.458;11.062;2024-03-06T09:07:43;100857.05;;;13.97;63.38
76808;BME280;65758;45.458;11.062;2024-03-06T09:10:10;100864.05;;;14.03;63.24
76808;BME280;65758;45.458;11.062;2024-03-06T09:12:37;100864.73;;;14.10;62.96
76808;BME280;65758;45.458;11.062;2024-03-06T09:15:05;100858.71;;;14.18;62.32
76808;BME280;65758;45.458;11.062;2024-03-06T09:17:35;100867.70;;;14.21;62.14
76808;BME280;65758;45.458;11.062;2024-03-06T09:20:03;100867.02;;;14.23;61.89
76808;BME280;65758;45.458;11.062;2024-03-06T09:22:41;100872.69;;;14.29;62.45
76808;BME280;65758;45.458;11.062;2024-03-06T09:25:09;100873.09;;;14.41;62.17
76808;BME280;65758;45.458;11.062;2024-03-06T09:27:37;100874.28;;;14.49;61.41
76808;BME280;65758;45.458;11.062;2024-03-06T09:30:05;100873.14;;;14.57;61.30
76808;BME280;65758;45.458;11.062;2024-03-06T09:32:32;100877.41;;;14.66;61.14
76808;BME280;65758;45.458;11.062;2024-03-06T09:34:59;100879.69;;;14.66;61.00
76808;BME280;65758;45.458;11.062;2024-03-06T09:37:28;100881.86;;;14.64;61.14
76808;BME280;65758;45.458;11.062;2024-03-06T09:39:55;100884.41;;;14.72;61.01
76808;BME280;65758;45.458;11.062;2024-03-06T09:42:23;100885.74;;;14.79;60.67
76808;BME280;65758;45.458;11.062;2024-03-06T09:44:51;100883.48;;;14.82;60.44
76808;BME280;65758;45.458;11.062;2024-03-06T09:47:21;100876.80;;;14.89;60.83
76808;BME280;65758;45.458;11.062;2024-03-06T09:49:54;100881.41;;;14.88;60.57
76808;BME280;65758;45.458;11.062;2024-03-06T09:52:23;100884.01;;;14.81;60.37
76808;BME280;65758;45.458;11.062;2024-03-06T09:54:54;100879.13;;;14.78;60.67
76808;BME280;65758;45.458;11.062;2024-03-06T09:57:21;100878.02;;;14.82;60.42
76808;BME280;65758;45.458;11.062;2024-03-06T09:59:48;100878.75;;;14.94;60.07
76808;BME280;65758;45.458;11.062;2024-03-06T10:02:37;100869.33;;;15.04;60.06
76808;BME280;65758;45.458;11.062;2024-03-06T10:05:05;100866.98;;;15.18;59.60
76808;BME280;65758;45.458;11.062;2024-03-06T10:07:33;100878.38;;;15.19;59.67
76808;BME280;65758;45.458;11.062;2024-03-06T10:09:59;100873.93;;;15.17;59.65
76808;BME280;65758;45.458;11.062;2024-03-06T10:12:28;100876.96;;;15.18;59.52
76808;BME280;65758;45.458;11.062;2024-03-06T10:14:56;100885.44;;;15.20;59.82
76808;BME280;65758;45.458;11.062;2024-03-06T10:17:24;100880.48;;;15.20;59.99
76808;BME280;65758;45.458;11.062;2024-03-06T10:19:54;100879.78;;;15.22;59.85
76808;BME280;65758;45.458;11.062;2024-03-06T10:22:22;100879.63;;;15.31;59.83
76808;BME280;65758;45.458;11.062;2024-03-06T10:24:55;100878.13;;;15.33;59.77
76808;BME280;65758;45.458;11.062;2024-03-06T10:27:23;100875.01;;;15.35;59.59
76808;BME280;65758;45.458;11.062;2024-03-06T10:30:03;100872.91;;;15.47;59.94
76808;BME280;65758;45.458;11.062;2024-03-06T10:32:32;100871.48;;;15.63;59.89
76808;BME280;65758;45.458;11.062;2024-03-06T10:34:59;100872.16;;;15.77;59.21
76808;BME280;65758;45.458;11.062;2024-03-06T10:37:28;100868.70;;;15.93;58.74
76808;BME280;65758;45.458;11.062;2024-03-06T10:39:58;100874.11;;;16.08;57.81
76808;BME280;65758;45.458;11.062;2024-03-06T10:42:28;100872.61;;;16.13;57.62
76808;BME280;65758;45.458;11.062;2024-03-06T10:44:59;100869.70;;;16.25;57.47
76808;BME280;65758;45.458;11.062;2024-03-06T10:47:26;100876.36;;;16.34;56.58
76808;BME280;65758;45.458;11.062;2024-03-06T10:49:55;100877.33;;;16.31;56.24
76808;BME280;65758;45.458;11.062;2024-03-06T10:52:27;100876.78;;;16.36;56.09
76808;BME280;65758;45.458;11.062;2024-03-06T10:54:55;100872.73;;;16.48;56.16
76808;BME280;65758;45.458;11.062;2024-03-06T10:57:25;100875.02;;;16.54;55.56
76808;BME280;65758;45.458;11.062;2024-03-06T10:59:52;100872.06;;;16.60;55.14
76808;BME280;65758;45.458;11.062;2024-03-06T11:02:20;100878.07;;;16.60;54.78
76808;BME280;65758;45.458;11.062;2024-03-06T11:04:51;100873.26;;;16.60;54.85
76808;BME280;65758;45.458;11.062;2024-03-06T11:07:19;100871.80;;;16.63;54.67
76808;BME280;65758;45.458;11.062;2024-03-06T11:09:46;100869.16;;;16.59;55.04
76808;BME280;65758;45.458;11.062;2024-03-06T11:12:38;100867.23;;;16.55;55.50
76808;BME280;65758;45.458;11.062;2024-03-06T11:15:15;100867.36;;;16.57;55.30
76808;BME280;65758;45.458;11.062;2024-03-06T11:17:43;100865.10;;;16.57;54.99
76808;BME280;65758;45.458;11.062;2024-03-06T11:20:17;100868.79;;;16.59;54.62
76808;BME280;65758;45.458;11.062;2024-03-06T11:28:33;100873.86;;;16.60;53.89
76808;BME280;65758;45.458;11.062;2024-03-06T11:31:04;100866.18;;;16.65;53.09
76808;BME280;65758;45.458;11.062;2024-03-06T11:33:39;100868.27;;;16.64;52.78
76808;BME280;65758;45.458;11.062;2024-03-06T11:36:20;100872.29;;;16.60;52.24
76808;BME280;65758;45.458;11.062;2024-03-06T11:38:59;100875.55;;;16.57;52.18
76808;BME280;65758;45.458;11.062;2024-03-06T11:41:45;100872.65;;;16.66;52.42
76808;BME280;65758;45.458;11.062;2024-03-06T11:44:18;100871.64;;;16.77;51.88
76808;BME280;65758;45.458;11.062;2024-03-06T11:49:20;100866.05;;;16.83;51.85
76808;BME280;65758;45.458;11.062;2024-03-06T11:51:48;100857.98;;;17.01;52.20
76808;BME280;65758;45.458;11.062;2024-03-06T11:54:16;100861.63;;;17.16;51.53
76808;BME280;65758;45.458;11.062;2024-03-06T11:56:52;100850.59;;;17.29;51.27
76808;BME280;65758;45.458;11.062;2024-03-06T11:59:23;100844.01;;;17.41;51.27
76808;BME280;65758;45.458;11.062;2024-03-06T12:01:56;100851.27;;;17.45;50.42
76808;BME280;65758;45.458;11.062;2024-03-06T12:04:24;100846.19;;;17.48;50.11
76808;BME280;65758;45.458;11.062;2024-03-06T12:06:51;100848.17;;;17.43;49.97
76808;BME280;65758;45.458;11.062;2024-03-06T12:09:18;100843.37;;;17.26;50.25
76808;BME280;65758;45.458;11.062;2024-03-06T12:11:45;100845.31;;;17.08;50.70
76808;BME280;65758;45.458;11.062;2024-03-06T12:14:21;100839.60;;;16.96;51.35
76808;BME280;65758;45.458;11.062;2024-03-06T12:17:01;100841.58;;;16.86;51.36
76808;BME280;65758;45.458;11.062;2024-03-06T12:19:32;100843.66;;;16.78;51.66
76808;BME280;65758;45.458;11.062;2024-03-06T12:22:00;100843.02;;;16.73;52.06
76808;BME280;65758;45.458;11.062;2024-03-06T12:24:31;100842.59;;;16.67;51.91
76808;BME280;65758;45.458;11.062;2024-03-06T12:27:02;100837.84;;;16.67;52.37
76808;BME280;65758;45.458;11.062;2024-03-06T12:29:31;100833.75;;;16.67;52.48
76808;BME280;65758;45.458;11.062;2024-03-06T12:32:02;100834.38;;;16.57;52.19
76808;BME280;65758;45.458;11.062;2024-03-06T12:34:29;100835.59;;;16.45;51.73
76808;BME280;65758;45.458;11.062;2024-03-06T12:37:08;100835.05;;;16.36;51.96
76808;BME280;65758;45.458;11.062;2024-03-06T12:39:35;100843.34;;;16.30;52.25
76808;BME280;65758;45.458;11.062;2024-03-06T12:42:07;100839.87;;;16.31;52.47
76808;BME280;65758;45.458;11.062;2024-03-06T12:44:34;100840.64;;;16.36;52.78
76808;BME280;65758;45.458;11.062;2024-03-06T12:47:01;100837.17;;;16.45;52.71
76808;BME280;65758;45.458;11.062;2024-03-06T12:49:28;100836.63;;;16.61;52.63
76808;BME280;65758;45.458;11.062;2024-03-06T12:51:55;100826.64;;;16.77;51.71
76808;BME280;65758;45.458;11.062;2024-03-06T12:54:22;100832.90;;;16.94;51.60
76808;BME280;65758;45.458;11.062;2024-03-06T12:56:49;100830.65;;;17.07;50.98
76808;BME280;65758;45.458;11.062;2024-03-06T12:59:16;100830.17;;;17.19;51.08
76808;BME280;65758;45.458;11.062;2024-03-06T13:01:43;100825.80;;;17.30;51.21